createdAt,value
2019-04-07T00:01:25.142Z,13.1
2019-04-07T00:11:23.789Z,13.1
2019-04-07T00:21:23.005Z,12.8
2019-04-07T00:31:22.802Z,13.1
2019-04-07T00:41:22.099Z,12.4
2019-04-07T00:51:20.710Z,13.1
2019-04-07T01:01:19.850Z,13.1
2019-04-07T01:11:19.053Z,13.1
2019-04-07T01:21:18.271Z,12.4
2019-04-07T01:31:17.643Z,12.4
2019-04-07T01:41:16.687Z,12.9
2019-04-07T01:51:15.893Z,12.8
2019-04-07T02:01:15.701Z,13.1
2019-04-07T02:11:14.578Z,12.6
2019-04-07T02:21:14.169Z,12.4
2019-04-07T02:31:13.536Z,13
2019-04-07T02:41:12.442Z,12.9
2019-04-07T02:51:11.165Z,12.5
2019-04-07T03:01:10.381Z,12.8
2019-04-07T03:14:26.189Z,12.6
2019-04-07T03:24:24.649Z,12.9
2019-04-07T03:34:26.027Z,13.1
2019-04-07T03:44:22.867Z,12.7
2019-04-07T03:54:22.778Z,12.8
2019-04-07T04:04:22.181Z,13.2
2019-04-07T04:14:20.497Z,13.1
2019-04-07T04:24:19.985Z,13
2019-04-07T04:34:19.273Z,12.5
2019-04-07T04:44:18.651Z,12.4
2019-04-07T04:54:17.640Z,13.1
2019-04-07T05:04:17.416Z,13.1
2019-04-07T05:14:16.469Z,12.9
2019-04-07T05:24:15.802Z,12.5
2019-04-07T05:34:18.378Z,13.1
2019-04-07T05:44:13.938Z,12.8
2019-04-07T05:54:16.365Z,12.5
2019-04-07T06:04:16.680Z,12.6
2019-04-07T06:14:14.224Z,12.9
2019-04-07T06:24:11.320Z,13.1
2019-04-07T06:34:11.268Z,12.8
2019-04-07T06:44:13.396Z,12.6
2019-04-07T06:54:08.411Z,13.2
2019-04-07T07:04:10.323Z,12.7
2019-04-07T07:14:07.768Z,13.3
2019-04-07T07:24:06.037Z,12.6
2019-04-07T07:34:05.130Z,13.4
2019-04-07T07:44:07.468Z,13.8
2019-04-07T07:54:03.588Z,13.3
2019-04-07T08:04:03.452Z,13.7
2019-04-07T08:14:02.282Z,13.6
2019-04-07T08:24:01.407Z,13.5
2019-04-07T08:34:01.278Z,13.3
2019-04-07T08:43:59.843Z,13.3
2019-04-07T08:53:58.826Z,14.3
2019-04-07T09:03:58.542Z,14.6
2019-04-07T09:13:58.159Z,14.7
2019-04-07T09:23:57.688Z,13.9
2019-04-07T09:33:56.147Z,14.4
2019-04-07T09:43:55.183Z,14.5
2019-04-07T09:53:54.446Z,14
2019-04-07T10:03:53.312Z,13.8
2019-04-07T10:13:53.065Z,14.5
2019-04-07T10:23:51.742Z,13.8
2019-04-07T10:33:51.200Z,14
2019-04-07T10:43:50.387Z,14.7
2019-04-07T10:53:49.469Z,14.3
2019-04-07T11:03:48.709Z,13.6
2019-04-07T11:13:49.006Z,14.4
2019-04-07T11:23:47.643Z,14.4
2019-04-07T11:33:47.050Z,13.8
2019-04-07T11:43:46.795Z,14.8
2019-04-07T11:53:45.910Z,14.4
2019-04-07T12:03:45.250Z,13.9
2019-04-07T12:13:44.859Z,13.7
2019-04-07T12:23:43.304Z,14.7
2019-04-07T12:33:42.151Z,14.5
2019-04-07T12:43:42.713Z,14.7
2019-04-07T12:53:41.117Z,14
2019-04-07T13:03:40.744Z,13.2
2019-04-07T13:13:38.991Z,12.7
2019-04-07T13:23:38.526Z,13
2019-04-07T13:33:38.076Z,13.1
2019-04-07T13:43:37.056Z,13
2019-04-07T13:53:36.704Z,13.3
2019-04-07T14:03:35.677Z,13.2
2019-04-07T14:13:37.859Z,12.7
2019-04-07T14:23:34.249Z,13.2
2019-04-07T14:33:32.748Z,13.1
2019-04-07T14:43:32.198Z,13.3
2019-04-07T14:53:31.931Z,13.3
2019-04-07T15:03:30.698Z,12.5
2019-04-07T15:13:29.606Z,12.7
2019-04-07T15:23:30.913Z,12.7
2019-04-07T15:33:31.376Z,12.5
2019-04-07T15:43:27.867Z,12.4
2019-04-07T15:53:26.471Z,13.2
2019-04-07T16:03:26.552Z,12.6
2019-04-07T16:13:24.989Z,13
2019-04-07T16:23:24.110Z,12.6
2019-04-07T16:33:23.318Z,12.5
2019-04-07T16:43:22.534Z,13
2019-04-07T16:53:21.814Z,12.5
2019-04-07T17:03:21.674Z,12.4
2019-04-07T17:13:29.190Z,12.4
2019-04-07T17:23:21.531Z,13.2
2019-04-07T17:33:20.821Z,13.2
2019-04-07T17:43:26.224Z,13.1
2019-04-07T17:53:17.404Z,13
2019-04-07T18:03:16.254Z,12.8
2019-04-07T18:13:16.643Z,13.1
2019-04-07T18:23:14.682Z,12.6
2019-04-07T18:33:17.538Z,13.1
2019-04-07T18:43:15.156Z,13.1
2019-04-07T18:53:12.324Z,12.8
2019-04-07T19:03:11.879Z,13.2
2019-04-07T19:13:15.817Z,12.7
2019-04-07T19:23:10.991Z,12.5
2019-04-07T19:33:09.189Z,12.8
2019-04-07T19:43:10.635Z,13.1
2019-04-07T19:53:10.439Z,13.1
2019-04-07T20:03:09.513Z,12.9
2019-04-07T20:13:06.555Z,12.9
2019-04-07T20:23:06.308Z,12.8
2019-04-07T20:33:04.476Z,12.6
2019-04-07T20:43:04.570Z,12.6
2019-04-07T20:53:12.344Z,12.7
2019-04-07T21:03:14.991Z,12.6
2019-04-07T21:09:15.574Z,12.9
2019-04-07T21:19:14.792Z,12.8
2019-04-07T21:29:14.874Z,13.1
2019-04-07T21:39:14.172Z,13.1
2019-04-07T21:49:12.444Z,12.9
2019-04-07T21:59:11.656Z,12.6
2019-04-07T22:09:14.654Z,12.6
2019-04-07T22:19:12.420Z,12.5
2019-04-07T22:29:09.755Z,12.6
2019-04-07T22:39:08.772Z,12.8
2019-04-07T22:49:08.062Z,12.6
2019-04-07T22:59:08.944Z,12.6
2019-04-07T23:07:20.168Z,13.1
2019-04-07T23:17:19.609Z,12.9
2019-04-07T23:27:18.184Z,13.2
2019-04-07T23:37:17.300Z,12.4
2019-04-07T23:47:17.335Z,13.2
2019-04-07T23:57:15.723Z,12.5
